Time;durP1;ratioP1;P1;durP2;ratioP2;P2;SDS_P1;SDS_P2;PMS_P1;PMS_P2;Temp;Humidity;BMP_temperature;BMP_pressure;BME280_temperature;BME280_humidity;BME280_pressure;Samples;Min_cycle;Max_cycle;Signal;HPM_P1;HPM_P2
2022/11/07 00:01:21;;;;;;;37.17;24.48;;;;;;;12.06;75.89;95448.56;5072296;28;20032;-75
2022/11/07 00:08:11;;;;;;;45.80;26.88;;;;;;;12.04;76.48;95487.16;5060570;28;21232;-75
2022/11/07 00:10:36;;;;;;;43.92;26.05;;;;;;;11.83;76.94;95470.50;5066241;28;20044;-75
2022/11/07 00:13:02;;;;;;;44.78;26.10;;;;;;;11.80;77.18;95455.91;5066215;28;20069;-75
2022/11/07 00:15:27;;;;;;;46.30;26.92;;;;;;;12.02;77.12;95484.75;5066017;28;20107;-76
2022/11/07 00:17:52;;;;;;;42.03;26.45;;;;;;;11.55;76.97;95413.50;5067699;28;20028;-75
2022/11/07 00:20:18;;;;;;;41.72;26.10;;;;;;;11.99;77.12;95482.63;5066378;28;20528;-75
2022/11/07 00:22:43;;;;;;;47.28;27.80;;;;;;;11.91;76.82;95467.25;5067870;28;20085;-75
2022/11/07 00:25:09;;;;;;;46.03;27.33;;;;;;;12.03;77.12;95482.88;5067203;28;20037;-76
2022/11/07 00:27:34;;;;;;;46.17;28.23;;;;;;;11.73;76.92;95436.78;5065901;28;20120;-75
2022/11/07 00:29:59;;;;;;;46.30;27.77;;;;;;;12.00;76.95;95484.22;5066200;28;20040;-75
2022/11/07 00:32:25;;;;;;;44.30;28.33;;;;;;;11.15;77.30;95356.03;5065769;28;20074;-76
2022/11/07 00:34:50;;;;;;;48.17;27.45;;;;;;;11.59;77.21;95435.78;5067254;28;20055;-76
2022/11/07 00:37:16;;;;;;;52.05;29.38;;;;;;;11.68;76.96;95452.72;5067063;28;20036;-75
2022/11/07 00:39:41;;;;;;;41.45;27.10;;;;;;;11.90;77.20;95490.38;5067212;28;20052;-76
2022/11/07 00:42:06;;;;;;;46.58;27.50;;;;;;;11.83;77.32;95478.47;5067085;28;20111;-75
2022/11/07 00:44:32;;;;;;;43.75;27.77;;;;;;;11.79;77.29;95472.13;5067137;28;20052;-75
2022/11/07 00:46:57;;;;;;;45.15;27.00;;;;;;;11.52;77.76;95435.28;5065345;28;20117;-75
2022/11/07 00:49:23;;;;;;;47.00;26.98;;;;;;;11.58;77.69;95458.91;5066901;28;20036;-76
2022/11/07 00:51:48;;;;;;;47.20;28.65;;;;;;;11.83;78.03;95489.88;5065659;28;20124;-75
2022/11/07 00:54:13;;;;;;;49.33;28.88;;;;;;;11.77;77.65;95479.56;5067056;28;20558;-76
2022/11/07 00:56:39;;;;;;;48.97;28.27;;;;;;;11.85;78.04;95490.41;5066486;28;20028;-75
2022/11/07 00:59:04;;;;;;;49.67;28.67;;;;;;;11.62;77.77;95448.50;5066837;28;20174;-75
2022/11/07 01:01:32;;;;;;;44.13;28.77;;;;;;;11.52;77.72;95438.72;5065830;28;20024;-74
2022/11/07 01:06:44;;;;;;;46.33;28.10;;;;;;;11.86;77.77;95483.25;5067108;28;20111;-75
2022/11/07 01:09:12;;;;;;;43.60;28.52;;;;;;;11.86;78.07;95473.41;5066696;28;20461;-74
2022/11/07 01:11:39;;;;;;;42.35;29.10;;;;;;;11.80;77.76;95473.72;5066996;28;20040;-75
2022/11/07 01:14:06;;;;;;;49.30;28.42;;;;;;;11.81;78.36;95481.41;5067136;28;20044;-75
2022/11/07 01:16:34;;;;;;;48.17;28.60;;;;;;;11.69;78.04;95459.63;5065730;28;20513;-74
2022/11/07 01:19:01;;;;;;;47.63;29.58;;;;;;;11.30;78.35;95405.63;5057162;28;20041;-75
2022/11/07 01:21:27;;;;;;;54.22;29.38;;;;;;;11.43;78.38;95431.63;5053562;28;20047;-74
2022/11/07 01:23:52;;;;;;;47.92;28.13;;;;;;;11.61;78.64;95461.00;5053652;28;20108;-75
2022/11/07 01:26:18;;;;;;;51.90;28.88;;;;;;;11.45;78.91;95435.56;5052728;28;20043;-75
2022/11/07 01:28:44;;;;;;;56.25;31.67;;;;;;;11.32;78.57;95401.66;5053515;28;20139;-74
2022/11/07 01:31:12;;;;;;;57.72;31.90;;;;;;;11.70;79.19;95453.25;5051247;28;20051;-74
2022/11/07 01:33:38;;;;;;;52.03;29.48;;;;;;;11.20;78.89;95379.94;5051887;28;20136;-75
2022/11/07 01:36:09;;;;;;;55.70;32.75;;;;;;;11.73;79.46;95457.25;5053494;28;20040;-74
2022/11/07 01:38:35;;;;;;;;;;;;;;;11.72;79.46;95453.78;5052391;28;20514;-74
2022/11/07 01:43:45;;;;;;;54.70;32.75;;;;;;;11.75;79.40;95460.47;5053504;28;20055;-74
2022/11/07 01:46:10;;;;;;;54.00;31.60;;;;;;;11.47;79.13;95417.50;5052704;28;20041;-75
2022/11/07 01:48:37;;;;;;;53.15;32.88;;;;;;;11.31;79.67;95389.44;5052648;28;20028;-75
2022/11/07 01:51:03;;;;;;;54.75;31.73;;;;;;;11.56;79.12;95431.03;5053234;28;20051;-74
2022/11/07 01:53:28;;;;;;;51.53;33.45;;;;;;;11.36;78.90;95400.06;5052982;28;20119;-74
2022/11/07 01:55:54;;;;;;;58.85;32.53;;;;;;;11.58;78.83;95436.84;5052921;28;20041;-74
2022/11/07 01:58:19;;;;;;;64.40;35.15;;;;;;;11.75;79.28;95460.47;5053342;28;20032;-74
2022/11/07 02:00:45;;;;;;;58.25;33.40;;;;;;;11.25;78.92;95400.34;5053134;28;20033;-74
2022/11/07 02:03:16;;;;;;;57.00;33.72;;;;;;;11.42;79.23;95425.50;5053067;28;20033;-74
2022/11/07 02:05:45;;;;;;;61.42;36.00;;;;;;;11.50;78.50;95435.56;5052925;28;20037;-74
2022/11/07 02:08:12;;;;;;;67.38;35.53;;;;;;;11.67;79.02;95466.31;5053415;28;20519;-74
2022/11/07 02:10:39;;;;;;;60.75;33.75;;;;;;;11.67;79.11;95468.97;5051285;28;20029;-74
2022/11/07 02:13:06;;;;;;;67.15;34.80;;;;;;;11.29;78.84;95418.09;5051398;28;20099;-74
2022/11/07 02:15:33;;;;;;;57.53;35.13;;;;;;;11.40;78.79;95437.47;5051483;28;20037;-74
2022/11/07 02:17:59;;;;;;;62.85;36.47;;;;;;;11.43;78.97;95440.38;5051220;28;20535;-74
2022/11/07 02:20:25;;;;;;;60.63;36.33;;;;;;;11.33;79.06;95426.34;5051305;28;20416;-74
2022/11/07 02:23:07;;;;;;;63.42;34.63;;;;;;;11.59;78.75;95468.44;5051292;28;20035;-74
2022/11/07 02:25:33;;;;;;;56.63;35.92;;;;;;;11.38;79.33;95434.28;5051294;28;20668;-75
2022/11/07 02:28:02;;;;;;;62.38;35.35;;;;;;;11.58;79.11;95468.72;5052168;28;20056;-74
2022/11/07 02:30:32;;;;;;;69.32;35.67;;;;;;;11.56;79.00;95469.00;5051338;28;20457;-74
2022/11/07 02:32:58;;;;;;;67.05;36.72;;;;;;;11.44;79.22;95449.16;5052243;28;20029;-74
2022/11/07 02:35:42;;;;;;;61.00;34.60;;;;;;;11.48;79.51;95466.91;5050488;28;20045;-74
2022/11/07 02:38:21;;;;;;;54.80;34.95;;;;;;;11.38;79.31;95455.50;5052652;28;20083;-75
2022/11/07 02:41:09;;;;;;;59.63;34.10;;;;;;;11.42;78.71;95465.34;5052756;28;20056;-74
2022/11/07 02:43:40;;;;;;;58.17;32.60;;;;;;;11.48;79.16;95472.22;5051634;28;20404;-74
2022/11/07 02:46:10;;;;;;;54.20;31.80;;;;;;;11.27;79.03;95438.84;5052185;28;20392;-74
2022/11/07 02:48:45;;;;;;;65.35;34.97;;;;;;;10.83;78.98;95369.72;5050604;28;20108;-74
2022/11/07 02:51:11;;;;;;;56.92;32.63;;;;;;;11.28;78.85;95445.75;5050238;28;20586;-75
2022/11/07 02:53:36;;;;;;;57.80;31.02;;;;;;;11.17;78.32;95444.97;5051324;28;20182;-77
2022/11/07 02:56:02;;;;;;;57.85;31.38;;;;;;;11.38;78.59;95472.25;5049432;28;20118;-78
2022/11/07 02:58:28;;;;;;;60.65;34.00;;;;;;;11.06;78.89;95429.34;5049341;28;20509;-77
2022/11/07 03:00:53;;;;;;;64.35;33.85;;;;;;;11.25;78.57;95464.06;5051061;28;20561;-77
2022/11/07 03:03:18;;;;;;;58.70;32.50;;;;;;;11.20;78.12;95470.19;5050690;28;20404;-77
2022/11/07 03:05:44;;;;;;;48.92;31.77;;;;;;;11.17;77.76;95471.53;5049083;28;20507;-76
2022/11/07 03:08:09;;;;;;;61.58;33.08;;;;;;;11.15;77.93;95475.50;5049134;28;20033;-77
2022/11/07 03:10:35;;;;;;;51.00;30.80;;;;;;;10.84;78.11;95419.84;5050831;28;20082;-77
2022/11/07 03:13:00;;;;;;;47.75;31.15;;;;;;;10.82;78.04;95440.56;5050771;28;20384;-77
2022/11/07 03:15:27;;;;;;;57.22;32.92;;;;;;;10.97;77.82;95455.66;5049194;28;20099;-78
2022/11/07 03:17:52;;;;;;;56.42;32.72;;;;;;;10.96;78.54;95462.03;5048887;28;20036;-77
2022/11/07 03:20:18;;;;;;;55.88;31.40;;;;;;;11.05;78.72;95470.22;5048836;28;20040;-78
2022/11/07 03:22:45;;;;;;;60.25;34.05;;;;;;;10.73;78.79;95431.53;5050345;28;20045;-77
2022/11/07 03:25:11;;;;;;;57.65;32.95;;;;;;;10.86;78.39;95469.19;5050333;28;20107;-77
2022/11/07 03:27:45;;;;;;;59.08;34.33;;;;;;;10.49;79.54;95429.72;5048857;28;20037;-77
2022/11/07 03:30:11;;;;;;;56.08;31.25;;;;;;;10.77;79.16;95464.41;5048686;28;20064;-77
2022/11/07 03:32:36;;;;;;;63.15;34.17;;;;;;;10.60;79.06;95442.72;5048934;28;20029;-77
2022/11/07 03:35:02;;;;;;;61.95;32.22;;;;;;;10.45;79.36;95424.94;5050344;28;20121;-78
2022/11/07 03:37:27;;;;;;;60.80;33.67;;;;;;;10.54;78.54;95433.16;5050024;28;20629;-77
2022/11/07 03:39:52;;;;;;;62.97;33.58;;;;;;;10.56;78.40;95451.44;5048752;28;20032;-78
2022/11/07 03:42:18;;;;;;;69.15;34.63;;;;;;;10.64;78.99;95464.19;5050040;28;20061;-77
2022/11/07 03:44:43;;;;;;;61.85;33.88;;;;;;;10.56;78.74;95451.44;5048894;28;20094;-77
2022/11/07 03:47:09;;;;;;;55.85;33.10;;;;;;;10.89;78.74;95508.47;5048712;28;20043;-78
2022/11/07 03:49:34;;;;;;;60.13;33.50;;;;;;;10.67;78.54;95482.22;5048738;28;20036;-78
2022/11/07 03:51:59;;;;;;;57.53;32.65;;;;;;;10.76;78.30;95499.16;5050099;28;20033;-78
2022/11/07 03:54:25;;;;;;;68.05;34.38;;;;;;;10.43;79.03;95445.63;5050352;28;20033;-78
2022/11/07 03:56:51;;;;;;;56.90;33.40;;;;;;;10.74;78.14;95502.13;5050275;28;20033;-77
2022/11/07 03:59:16;;;;;;;63.00;34.10;;;;;;;10.80;78.58;95526.78;5050097;28;20040;-78
2022/11/07 04:01:43;;;;;;;63.65;34.83;;;;;;;10.40;78.23;95467.34;5048456;28;20036;-78
2022/11/07 04:04:09;;;;;;;69.15;34.05;;;;;;;10.49;78.42;95480.09;5048466;28;20036;-78
2022/11/07 04:06:34;;;;;;;59.13;33.22;;;;;;;10.27;78.99;95470.53;5048318;28;20045;-78
2022/11/07 04:09:00;;;;;;;58.40;33.03;;;;;;;10.52;79.01;95522.81;5048802;28;20075;-78
2022/11/07 04:19:37;;;;;;;54.63;28.33;;;;;;;10.29;78.76;95491.50;5050022;28;20414;-78
2022/11/07 04:22:02;;;;;;;52.63;30.33;;;;;;;10.62;78.57;95535.25;5048413;28;20037;-78
2022/11/07 04:24:27;;;;;;;58.95;29.90;;;;;;;10.70;77.79;95543.47;5048524;28;20037;-78
2022/11/07 04:29:57;;;;;;;49.97;28.65;;;;;;;10.45;78.02;95488.56;5046960;28;20523;-78
2022/11/07 04:32:23;;;;;;;52.38;28.23;;;;;;;10.69;77.72;95510.06;5030305;28;20065;-77
2022/11/07 04:34:49;;;;;;;48.42;30.38;;;;;;;10.85;78.10;95534.72;5048440;28;20048;-78
2022/11/07 04:37:15;;;;;;;46.75;29.17;;;;;;;10.83;78.17;95537.63;5049502;28;20033;-78
2022/11/07 04:39:40;;;;;;;52.10;30.13;;;;;;;10.76;78.00;95534.44;5048127;28;20059;-78
2022/11/07 04:42:06;;;;;;;45.65;31.00;;;;;;;10.81;77.28;95538.97;5048024;28;20061;-78
2022/11/07 04:44:32;;;;;;;51.50;29.98;;;;;;;10.75;78.55;95529.44;5048284;28;20495;-78
2022/11/07 04:46:57;;;;;;;55.25;32.08;;;;;;;10.86;78.52;95541.63;5049762;28;20033;-78
2022/11/07 04:49:22;;;;;;;57.50;33.78;;;;;;;10.88;79.23;95541.38;5049327;28;20086;-78
2022/11/07 04:51:48;;;;;;;48.50;31.83;;;;;;;10.62;78.86;95506.06;5049397;28;20036;-78
2022/11/07 04:54:14;;;;;;;57.88;32.13;;;;;;;10.92;79.31;95548.50;5050132;28;20064;-78
2022/11/07 04:56:40;;;;;;;49.72;30.80;;;;;;;10.58;78.71;95500.53;5051787;28;20037;-78
2022/11/07 04:59:06;;;;;;;52.08;32.05;;;;;;;10.89;78.48;95551.72;5053148;28;20535;-78
2022/11/07 05:01:31;;;;;;;56.17;32.92;;;;;;;10.91;78.64;95546.91;5033842;28;20033;-78
2022/11/07 05:03:57;;;;;;;56.58;31.95;;;;;;;10.68;78.17;95508.47;5050889;28;20032;-77
2022/11/07 05:06:23;;;;;;;54.92;34.33;;;;;;;10.80;79.02;95540.03;5052398;28;20049;-78
2022/11/07 05:08:48;;;;;;;57.40;32.75;;;;;;;10.93;79.01;95555.41;5051400;28;20040;-78
2022/11/07 05:11:14;;;;;;;56.75;34.28;;;;;;;10.96;78.45;95554.91;5043800;28;20037;-78
2022/11/07 05:13:39;;;;;;;60.72;34.38;;;;;;;10.63;79.06;95507.66;5046303;28;20075;-77
2022/11/07 05:16:09;;;;;;;64.03;35.30;;;;;;;10.78;79.14;95527.03;5048473;28;20033;-77
2022/11/07 05:18:35;;;;;;;65.13;37.70;;;;;;;10.78;79.35;95524.38;5033208;28;20067;-78
2022/11/07 05:21:00;;;;;;;57.33;34.72;;;;;;;10.82;78.85;95530.75;5037686;28;20131;-77
2022/11/07 05:23:27;;;;;;;63.60;34.40;;;;;;;11.10;79.06;95568.41;5035893;28;20895;-78
2022/11/07 05:25:53;;;;;;;57.97;34.50;;;;;;;11.00;78.72;95555.16;5044110;28;20158;-78
2022/11/07 05:28:29;;;;;;;63.17;34.13;;;;;;;11.04;79.02;95574.78;5041451;28;20108;-78
2022/11/07 05:30:59;;;;;;;61.38;32.35;;;;;;;10.79;78.29;95535.78;5030971;28;20045;-79
2022/11/07 05:33:24;;;;;;;64.45;32.33;;;;;;;10.61;78.81;95512.44;5030055;28;20404;-78
2022/11/07 05:35:49;;;;;;;60.75;31.67;;;;;;;10.69;77.38;95546.38;5039376;28;20094;-79
2022/11/07 05:38:15;;;;;;;56.90;30.92;;;;;;;10.20;77.81;95490.41;5040684;28;20037;-78
2022/11/07 05:40:40;;;;;;;64.25;34.58;;;;;;;10.49;77.72;95523.31;5032809;28;20041;-78
2022/11/07 05:43:11;;;;;;;69.47;33.20;;;;;;;11.02;77.81;95588.31;5036893;28;20033;-78
2022/11/07 05:45:37;;;;;;;54.80;30.13;;;;;;;10.75;77.23;95553.31;5035370;28;20037;-78
2022/11/07 05:48:08;;;;;;;55.10;32.15;;;;;;;10.97;76.84;95574.28;5028906;28;20057;-77
2022/11/07 05:50:35;;;;;;;59.38;32.25;;;;;;;11.07;77.27;95585.66;5036741;28;20726;-78
2022/11/07 05:53:01;;;;;;;66.70;31.98;;;;;;;11.03;77.05;95579.31;5036489;28;20046;-78
2022/11/07 05:55:27;;;;;;;55.80;29.60;;;;;;;10.82;76.39;95548.53;5032479;28;20028;-77
2022/11/07 05:57:54;;;;;;;67.20;29.10;;;;;;;11.07;76.00;95590.16;5037074;28;20032;-79
2022/11/07 06:00:20;;;;;;;59.70;32.53;;;;;;;11.21;76.67;95605.28;5038342;28;20135;-79
2022/11/07 06:02:59;;;;;;;62.22;32.42;;;;;;;10.98;76.74;95558.09;5035540;28;20033;-78
2022/11/07 06:05:25;;;;;;;57.15;30.98;;;;;;;11.37;76.88;95598.13;5031964;28;20032;-78
2022/11/07 06:07:50;;;;;;;57.85;30.33;;;;;;;11.47;76.77;95615.91;5025052;28;20138;-80
2022/11/07 06:10:16;;;;;;;54.45;34.03;;;;;;;11.16;77.02;95557.53;5029222;28;20041;-81
2022/11/07 06:12:41;;;;;;;56.58;31.95;;;;;;;11.17;76.51;95545.06;5033371;28;20317;-81
2022/11/07 06:15:07;;;;;;;61.40;33.25;;;;;;;11.44;76.87;95582.69;5030325;28;20108;-79
2022/11/07 06:17:32;;;;;;;63.78;33.47;;;;;;;11.78;76.62;95621.97;5022021;28;20029;-79
2022/11/07 06:19:58;;;;;;;72.07;36.70;;;;;;;11.86;76.57;95624.09;5032000;28;20043;-78
2022/11/07 06:22:24;;;;;;;65.97;34.05;;;;;;;11.68;76.90;95595.41;5029021;28;20036;-79
2022/11/07 06:24:50;;;;;;;53.70;33.03;;;;;;;11.60;76.66;95570.97;5032102;28;20037;-79
2022/11/07 06:27:15;;;;;;;62.33;35.05;;;;;;;11.85;76.65;95602.03;5029479;28;20060;-78
2022/11/07 06:29:41;;;;;;;56.33;33.38;;;;;;;11.87;76.39;95604.44;5030949;28;20128;-78
2022/11/07 06:32:06;;;;;;;66.50;34.97;;;;;;;12.12;76.67;95633.59;5032715;28;20036;-79
2022/11/07 06:34:31;;;;;;;65.35;36.25;;;;;;;12.03;76.63;95611.28;5035350;28;20515;-78
2022/11/07 06:36:57;;;;;;;62.00;35.85;;;;;;;11.86;76.34;95571.75;5035126;28;20508;-78
2022/11/07 06:39:22;;;;;;;64.50;34.40;;;;;;;11.95;76.85;95588.72;5031422;28;20518;-80
2022/11/07 06:41:48;;;;;;;81.57;40.10;;;;;;;12.31;76.62;95642.53;5029944;28;20031;-78
2022/11/07 06:44:14;;;;;;;87.78;38.75;;;;;;;12.01;77.45;95610.75;5030869;28;20039;-79
2022/11/07 06:46:40;;;;;;;83.45;40.92;;;;;;;12.28;77.08;95644.97;5027882;28;20326;-79
2022/11/07 06:49:06;;;;;;;76.57;39.38;;;;;;;12.37;76.90;95654.75;5032962;28;20040;-78
2022/11/07 06:51:31;;;;;;;77.22;39.58;;;;;;;12.33;76.79;95636.94;5036258;28;20909;-78
2022/11/07 06:53:57;;;;;;;70.28;40.50;;;;;;;12.43;76.72;95652.88;5038852;28;20045;-78
2022/11/07 06:56:22;;;;;;;71.40;41.33;;;;;;;12.34;76.40;95633.22;5029719;28;20025;-78
2022/11/07 06:58:47;;;;;;;77.97;41.67;;;;;;;12.09;76.85;95602.22;5036599;28;20037;-78
2022/11/07 07:01:13;;;;;;;87.82;45.13;;;;;;;12.03;76.65;95605.16;5031710;28;20575;-79
2022/11/07 07:03:43;;;;;;;77.35;46.38;;;;;;;12.29;76.65;95636.69;5026703;28;20419;-80
2022/11/07 07:06:12;;;;;;;83.75;47.50;;;;;;;12.15;76.94;95605.63;5024170;28;20057;-78
2022/11/07 07:08:38;;;;;;;84.55;49.67;;;;;;;12.11;77.20;95612.59;5035165;28;20032;-83
2022/11/07 07:11:07;;;;;;;91.50;49.10;;;;;;;12.36;77.65;95666.44;5026357;28;20025;-77
2022/11/07 07:13:33;;;;;;;80.68;44.55;;;;;;;12.10;78.14;95641.03;5025835;28;20035;-77
2022/11/07 07:15:58;;;;;;;79.15;42.22;;;;;;;12.46;77.58;95651.50;5023689;28;20120;-81
2022/11/07 07:18:25;;;;;;;80.05;42.55;;;;;;;12.06;77.28;95586.78;5027168;28;20043;-79
2022/11/07 07:20:52;;;;;;;90.45;47.55;;;;;;;12.27;78.06;95628.22;5030115;28;20528;-78
2022/11/07 07:23:19;;;;;;;85.85;46.10;;;;;;;12.57;77.56;95661.84;5033378;28;20086;-79
2022/11/07 07:25:45;;;;;;;97.13;44.30;;;;;;;12.46;76.91;95651.50;5030099;28;20822;-79
2022/11/07 07:28:11;;;;;;;85.18;42.92;;;;;;;12.53;76.74;95665.31;5031917;28;20032;-80
2022/11/07 07:30:37;;;;;;;80.00;45.33;;;;;;;12.46;76.34;95644.34;5032929;28;20411;-79
2022/11/07 07:33:03;;;;;;;77.40;41.03;;;;;;;12.23;76.82;95631.66;5037588;28;20037;-79
2022/11/07 07:35:28;;;;;;;75.18;42.22;;;;;;;12.58;77.10;95666.09;5029493;28;20052;-78
2022/11/07 07:37:53;;;;;;;76.65;39.90;;;;;;;12.44;76.70;95633.16;5033997;28;20037;-79
2022/11/07 07:40:19;;;;;;;66.60;38.47;;;;;;;12.46;76.66;95631.03;5030946;28;20041;-79
2022/11/07 07:42:45;;;;;;;76.13;41.08;;;;;;;12.70;76.45;95671.88;5038200;28;20035;-79
2022/11/07 07:45:13;;;;;;;73.88;40.22;;;;;;;12.81;76.36;95669.19;5034315;28;20064;-78
2022/11/07 07:47:39;;;;;;;81.53;43.67;;;;;;;12.56;76.36;95620.34;5032560;28;20017;-79
2022/11/07 07:50:06;;;;;;;79.03;42.40;;;;;;;12.83;75.99;95651.84;5031197;28;20064;-80
2022/11/07 07:52:32;;;;;;;77.15;43.22;;;;;;;12.68;76.39;95620.00;5021482;28;20037;-83
2022/11/07 07:54:58;;;;;;;73.10;41.13;;;;;;;13.00;76.29;95652.28;5020249;28;20573;-83
2022/11/07 07:57:23;;;;;;;76.93;41.10;;;;;;;13.09;76.40;95655.94;5028481;28;20043;-82
2022/11/07 07:59:49;;;;;;;78.43;42.53;;;;;;;12.72;75.94;95573.16;5029148;28;20036;-82
2022/11/07 08:02:14;;;;;;;86.35;43.05;;;;;;;12.61;75.49;95551.13;5033195;28;20853;-80
2022/11/07 08:04:40;;;;;;;75.22;43.78;;;;;;;13.18;75.65;95629.53;5034918;28;20033;-82
2022/11/07 08:07:06;;;;;;;80.30;45.03;;;;;;;13.15;75.97;95622.09;5034589;28;20060;-80
2022/11/07 08:09:35;;;;;;;97.50;45.28;;;;;;;13.40;76.02;95648.53;5036110;28;20035;-79
2022/11/07 08:12:02;;;;;;;73.53;42.58;;;;;;;13.41;75.42;95620.03;5019727;28;20728;-79
2022/11/07 08:14:27;;;;;;;86.75;42.63;;;;;;;13.32;75.43;95579.88;5031069;28;20116;-79
2022/11/07 08:16:53;;;;;;;74.18;40.55;;;;;;;13.94;75.14;95649.38;5026397;28;20052;-79
2022/11/07 08:19:18;;;;;;;73.93;39.42;;;;;;;14.12;74.71;95667.28;5031156;28;20032;-79
2022/11/07 08:21:44;;;;;;;76.72;41.47;;;;;;;14.19;74.40;95667.75;5032517;28;20033;-79
2022/11/07 08:24:09;;;;;;;79.97;38.88;;;;;;;14.21;74.20;95658.41;5035028;28;20037;-81
2022/11/07 08:26:36;;;;;;;76.90;39.45;;;;;;;14.36;74.52;95669.97;5032096;28;20041;-79
2022/11/07 08:29:01;;;;;;;67.60;37.20;;;;;;;13.89;72.72;95621.66;5031910;28;20033;-80
2022/11/07 08:31:26;;;;;;;61.80;36.47;;;;;;;14.42;73.05;95660.88;5037631;28;20033;-79
2022/11/07 08:33:52;;;;;;;65.88;36.40;;;;;;;14.37;72.37;95640.34;5034270;28;20059;-78
2022/11/07 08:36:17;;;;;;;68.47;37.75;;;;;;;14.13;72.02;95602.22;5034280;28;20036;-78
2022/11/07 08:38:43;;;;;;;63.85;35.00;;;;;;;14.35;72.05;95626.47;5028855;28;20042;-80
2022/11/07 08:41:08;;;;;;;64.43;36.88;;;;;;;14.68;72.74;95673.59;5035196;28;20136;-79
2022/11/07 08:43:34;;;;;;;60.97;36.50;;;;;;;14.65;72.41;95660.81;5038264;28;20043;-79
2022/11/07 08:45:59;;;;;;;77.70;38.58;;;;;;;14.58;72.00;95649.69;5033129;28;20059;-80
2022/11/07 08:48:25;;;;;;;63.50;37.25;;;;;;;14.74;71.65;95657.50;5038506;28;20020;-79
2022/11/07 08:50:52;;;;;;;67.63;37.70;;;;;;;14.57;71.33;95615.31;5041234;28;20448;-81
2022/11/07 08:53:18;;;;;;;71.30;41.97;;;;;;;14.53;70.93;95601.72;5035966;28;20032;-80
2022/11/07 08:55:43;;;;;;;70.13;40.90;;;;;;;14.47;70.87;95592.22;5032201;28;20033;-79
2022/11/07 08:58:09;;;;;;;75.55;39.35;;;;;;;14.98;70.69;95650.22;5025156;28;20704;-82
2022/11/07 09:00:35;;;;;;;70.80;40.55;;;;;;;14.44;70.60;95557.28;5043545;28;20041;-80
2022/11/07 09:03:05;;;;;;;71.13;39.58;;;;;;;14.99;70.46;95657.97;5023417;28;20576;-79
2022/11/07 09:05:31;;;;;;;61.38;34.72;;;;;;;15.12;70.42;95672.44;5034297;28;20032;-79
2022/11/07 09:07:56;;;;;;;63.30;33.63;;;;;;;14.92;70.35;95633.50;5017612;28;20170;-80
2022/11/07 09:10:22;;;;;;;69.38;33.55;;;;;;;14.72;70.67;95617.78;5033458;28;20034;-79
2022/11/07 09:12:49;;;;;;;69.07;31.75;;;;;;;15.28;70.11;95678.38;5034420;28;20040;-79
2022/11/07 09:15:16;;;;;;;64.15;34.58;;;;;;;15.23;70.13;95675.78;5032325;28;20834;-79
2022/11/07 09:17:41;;;;;;;62.08;32.10;;;;;;;14.85;70.03;95609.03;5032852;28;20043;-79
2022/11/07 09:20:08;;;;;;;59.58;31.83;;;;;;;15.29;69.40;95645.22;5036563;28;20021;-80
2022/11/07 09:23:14;;;;;;;65.80;33.80;;;;;;;15.62;68.82;95672.78;5033413;28;20878;-79
2022/11/07 09:25:39;;;;;;;50.08;29.25;;;;;;;15.17;68.10;95623.50;5033745;28;20054;-80
2022/11/07 09:28:05;;;;;;;53.65;29.95;;;;;;;15.53;67.69;95658.47;5034217;28;20095;-79
2022/11/07 09:30:31;;;;;;;44.40;27.85;;;;;;;15.41;66.90;95616.16;5037450;28;20481;-79
2022/11/07 09:32:57;;;;;;;47.92;28.35;;;;;;;15.30;66.14;95569.31;5035606;28;20779;-80
2022/11/07 09:35:22;;;;;;;56.00;29.30;;;;;;;15.73;65.03;95626.84;5033890;28;20098;-79
2022/11/07 09:37:49;;;;;;;46.55;29.58;;;;;;;15.70;64.48;95635.47;5034264;28;20174;-79
2022/11/07 09:40:51;;;;;;;49.95;26.30;;;;;;;16.02;63.92;95652.56;5035777;28;20616;-79
2022/11/07 09:43:38;;;;;;;64.07;31.55;;;;;;;16.00;63.29;95630.66;5025713;28;20028;-81
2022/11/07 09:46:25;;;;;;;63.22;33.88;;;;;;;16.06;62.89;95642.84;5049962;28;20780;-82
2022/11/07 09:48:59;;;;;;;56.97;34.83;;;;;;;16.15;62.27;95641.06;5029632;28;20045;-82
2022/11/07 09:51:35;;;;;;;59.47;32.92;;;;;;;16.21;61.98;95642.56;5031710;28;20079;-79
2022/11/07 09:54:06;;;;;;;51.17;30.92;;;;;;;16.11;61.82;95614.09;5035509;28;20045;-79
2022/11/07 09:56:33;;;;;;;50.75;30.50;;;;;;;16.43;61.36;95639.97;5030144;28;20048;-80
2022/11/07 09:59:03;;;;;;;45.65;28.60;;;;;;;16.49;60.93;95643.34;5029718;28;20164;-80
2022/11/07 10:01:32;;;;;;;43.72;24.92;;;;;;;16.32;59.63;95603.81;5031259;28;20391;-79
2022/11/07 10:03:58;;;;;;;39.97;24.15;;;;;;;16.20;58.04;95600.84;5032394;28;20071;-80
2022/11/07 10:06:28;;;;;;;36.88;23.17;;;;;;;16.00;58.56;95566.47;5033913;28;20152;-80
2022/11/07 10:09:10;;;;;;;38.15;22.45;;;;;;;16.63;57.90;95644.13;5034068;28;20045;-80
2022/11/07 10:11:50;;;;;;;;;;;;;;;16.73;57.09;95648.50;5053246;28;20119;-80
2022/11/07 10:14:29;;;;;;;40.67;22.02;;;;;;;16.67;56.01;95637.09;5034483;28;20443;-81
2022/11/07 10:17:22;;;;;;;42.13;21.90;;;;;;;16.62;55.53;95644.47;5031451;28;20028;-79
2022/11/07 10:20:00;;;;;;;34.92;21.42;;;;;;;17.10;55.53;95624.06;5030372;28;20048;-78
2022/11/07 10:22:38;;;;;;;39.20;22.35;;;;;;;17.29;55.93;95621.25;5036559;28;20036;-79
2022/11/07 10:25:17;;;;;;;34.45;21.67;;;;;;;17.52;55.74;95622.81;5034141;28;20064;-79
2022/11/07 10:27:46;;;;;;;41.20;21.25;;;;;;;17.46;55.02;95564.25;5028200;28;20032;-79
2022/11/07 10:30:17;;;;;;;37.80;20.35;;;;;;;17.94;54.48;95618.78;5035804;28;20118;-81
2022/11/07 10:32:50;;;;;;;;;;;;;;;17.88;53.97;95616.56;5023521;28;20029;-80
2022/11/07 10:35:26;;;;;;;38.03;20.02;;;;;;;17.92;53.02;95583.44;5032288;28;19932;-81
2022/11/07 10:37:54;;;;;;;32.55;20.98;;;;;;;17.91;52.78;95556.94;5058219;28;20965;-80
2022/11/07 10:40:20;;;;;;;38.30;21.48;;;;;;;18.01;52.30;95560.09;5031636;28;20131;-81
2022/11/07 10:42:47;;;;;;;48.50;21.38;;;;;;;17.84;52.93;95532.44;5033664;28;20044;-79
2022/11/07 10:45:16;;;;;;;36.47;19.60;;;;;;;18.21;52.13;95582.91;5036054;28;20116;-80
2022/11/07 10:47:42;;;;;;;35.22;20.90;;;;;;;17.89;52.88;95546.50;5030402;28;20112;-80
2022/11/07 10:50:19;;;;;;;27.70;18.98;;;;;;;18.08;53.03;95573.84;5028050;28;20056;-80
2022/11/07 10:53:17;;;;;;;31.95;18.75;;;;;;;18.24;52.77;95584.97;5027457;28;20586;-79
2022/11/07 10:55:44;;;;;;;28.70;19.45;;;;;;;17.99;52.78;95540.06;5026726;28;20353;-79
2022/11/07 10:58:23;;;;;;;40.20;21.05;;;;;;;18.15;52.37;95568.06;5033516;28;20032;-80
2022/11/07 11:01:07;;;;;;;42.40;20.40;;;;;;;17.88;52.66;95519.97;5036381;28;20427;-79
2022/11/07 11:03:39;;;;;;;27.83;17.65;;;;;;;18.10;52.14;95531.41;5034302;28;20140;-80
2022/11/07 11:06:29;;;;;;;41.40;19.95;;;;;;;18.43;51.37;95577.44;5018684;28;20040;-79
2022/11/07 11:08:54;;;;;;;31.90;18.40;;;;;;;18.42;51.98;95581.22;5029048;28;20040;-79
2022/11/07 11:11:20;;;;;;;29.00;18.48;;;;;;;18.59;51.52;95567.06;5028152;28;20055;-85
2022/11/07 11:13:46;;;;;;;29.52;17.73;;;;;;;18.40;51.33;95553.09;5030736;28;20108;-81
2022/11/07 11:16:27;;;;;;;31.08;18.65;;;;;;;17.72;50.52;95447.19;5028013;28;20041;-81
2022/11/07 11:18:56;;;;;;;33.55;17.67;;;;;;;18.32;51.21;95517.06;5030028;28;20073;-82
2022/11/07 11:21:36;;;;;;;30.20;17.80;;;;;;;18.64;51.34;95523.13;5023134;28;20044;-85
2022/11/07 11:24:19;;;;;;;35.25;17.33;;;;;;;18.79;49.77;95512.72;5020208;28;20127;-81
2022/11/07 11:26:49;;;;;;;28.27;16.48;;;;;;;19.14;49.81;95558.38;5025879;28;20167;-80
2022/11/07 11:29:21;;;;;;;39.20;18.70;;;;;;;19.30;48.39;95540.63;5051617;28;20510;-81
2022/11/07 11:31:51;;;;;;;37.60;18.75;;;;;;;19.46;48.19;95540.91;5018900;28;20033;-79
2022/11/07 11:34:30;;;;;;;31.13;17.67;;;;;;;19.64;47.86;95545.16;5022826;28;20175;-78
2022/11/07 11:37:05;;;;;;;29.88;17.83;;;;;;;19.58;48.82;95535.69;5017804;28;20170;-78
2022/11/07 11:39:56;;;;;;;30.33;18.00;;;;;;;19.66;48.09;95540.25;5027048;28;20044;-78
2022/11/07 11:43:09;;;;;;;29.33;17.45;;;;;;;19.65;47.98;95536.00;5020050;28;20051;-78